Tiempo atmosférico en la estación meteorológica de Elgeta, Gipuzkoa (470 m.)



Fecha
DESCASC
Temp. máxima en grados centígrados (hora)
DESCASC
Temp. mínima en grados centígrados (hora)
DESCASC
Temp. media en grados centígrados
DESCASC
Racha de viento máxima en m/sg (hora)
DESCASC
Velocidad máxima media en intervalos de 10 minutos(hora)
DESCASC
Precipitaciones diarias en mm
DESCASC
Precipitaciones de 00:00 a 06:00 en mm
DESCASC
Precipitaciones de 06:00 a 12:00 en mm
DESCASC
Precipitaciones de 12:00 a 18:00 en mm
DESCASC
Precipitaciones de 18:00 a 24:00 en mm
DESCASC
19-09-2019 22.9 (16:00) 14.2 (08:00) 18.5 4.44 (00:40) 2.22 (16:10) 0 0 0 0 0
18-09-2019 21.3 (15:30) 14.9 (08:00) 18.1 5.83 (16:10) 2.5 (16:40) 0 0 0 0 0
17-09-2019 26.7 (15:00) 15.2 (00:00) 21 4.72 (23:30) 2.5 (16:40) 0 0 0 0 0
16-09-2019 27 (15:00) 15.9 (00:00) 21.4 6.67 (17:30) 3.89 (17:30) 7.6 5.4 2.2 0 0
15-09-2019 26.2 (13:40) 15.7 (00:00) 21 8.89 (15:50) 2.5 (15:50) 11 0 0 6.6 4.4
14-09-2019 26.4 (14:20) 15.1 (00:00) 20.8 6.67 (17:20) 3.06 (16:50) 0.2 0.2 0 0 0
13-09-2019 24.4 (15:40) 11.2 (00:00) 17.8 4.72 (17:20) 1.94 (16:00) 0 0 0 0 0
12-09-2019 22.1 (15:40) 10.9 (00:00) 16.5 5.28 (16:10) 2.5 (16:10) 0 0 0 0 0
11-09-2019 18.5 (15:50) 12.7 (00:00) 15.6 10.56 (10:30) 3.61 (10:20) 3.8 3.6 0 0.2 0
10-09-2019 13.8 (00:00) 9.5 (08:00) 11.7 11.39 (17:40) 3.33 (17:30) 53 11 37 5 0
09-09-2019 18.7 (15:00) 7.9 (07:30) 13.3 7.78 (23:59) 3.33 (16:10) 0 0 0 0 0
08-09-2019 19.2 (17:30) 10.6 (00:00) 14.9 5.83 (12:50) 2.22 (12:40) 4 1.2 2.8 0 0
07-09-2019 19.1 (17:30) 9.7 (00:00) 14.4 5.83 (14:20) 2.5 (17:40) 0 0 0 0 0
06-09-2019 18 (15:40) 11.2 (00:00) 14.6 7.5 (15:20) 2.78 (15:00) 0 0 0 0 0
05-09-2019 16.9 (13:00) 12.1 (00:00) 14.5 7.5 (02:40) 3.33 (11:40) 5.8 3.8 0.4 1.6 0
04-09-2019 21.9 (15:30) 10.7 (00:00) 16.3 6.94 (16:30) 3.33 (16:30) 0 0 0 0 0
03-09-2019 22 (14:00) 11 (00:00) 16.5 6.11 (12:50) 3.06 (17:00) 0 0 0 0 0
02-09-2019 19.9 (17:50) 11.1 (00:00) 15.5 6.39 (18:40) 2.5 (15:00) 0.4 0.4 0 0 0
01-09-2019 20.9 (16:40) 13.6 (00:00) 17.3 6.11 (22:20) 2.22 (16:30) 8 0 0.2 1.2 6.6
31-08-2019 21 (12:00) 17 (00:00) 19 4.72 (16:30) 2.5 (16:30) 1.8 0 0 0 1.8
30-08-2019 28.1 (16:00) 15.5 (00:00) 21.8 5.28 (16:50) 2.5 (17:00) 0 0 0 0 0
29-08-2019 25 (16:40) 16.2 (00:00) 20.6 6.39 (18:10) 3.33 (18:40) 0 0 0 0 0
28-08-2019 26.7 (14:50) 17.1 (00:00) 21.9 6.39 (16:50) 2.78 (16:30) 0.2 0 0 0 0.2
27-08-2019 22.6 (14:30) 14.2 (00:00) 18.4 5.56 (15:30) 2.5 (16:10) 0.2 0 0.2 0 0
26-08-2019 29.7 (16:10) 16.9 (00:00) 23.3 7.22 (16:00) 3.06 (18:50) 7.4 0.2 0 0 7.2
25-08-2019 20.9 (12:00) 16.6 (00:00) 18.8 5.28 (21:10) 2.78 (12:20) 1 1 0 0 0
24-08-2019 32.1 (15:00) 17.2 (00:00) 24.6 6.11 (15:10) 3.06 (15:10) 0.8 0 0 0 0.8
23-08-2019 31.6 (16:50) 12.4 (00:00) 22 4.17 (11:40) 2.5 (09:50) 0 0 0 0 0
22-08-2019 -- (--) -- (--) -- 5.83 (13:30) 2.5 (17:20) -- 0 -- 0 0
21-08-2019 23.2 (15:40) 12.7 (00:00) 18 6.39 (18:00) 3.33 (17:00) 0 0 0 0 0

Gráficas

Temp. máximas Temp. mínimas Temp. medias Precipitaciones Rachas de viento máximas Velocidades máximas media en intervalos de 10 minutos

Datos horarios

Fecha y hora oficial Temperatura (ºC) Velocidad del viento (km/h) Dirección del viento Racha (km/h) Dirección de racha Precipitación (mm) Presión (hPa) Tendencia (hPa) Humedad (%)
2019-09-19 23:00:00 15.1 2 Oeste 4 Oeste 0 -- -- 100
2019-09-19 22:00:00 15.5 0 Calma 5 Oeste 0 -- -- 97
2019-09-19 21:00:00 16.5 3 Oeste 6 Oeste 0 -- -- 94
2019-09-19 20:00:00 17.8 3 Oeste 11 Norte 0 -- -- 90
2019-09-19 19:00:00 19.4 4 Norte 14 Nordeste 0 -- -- 84
2019-09-19 18:00:00 21.2 6 Norte 14 Nordeste 0 -- -- 78
2019-09-19 17:00:00 22.1 5 Norte 16 Norte 0 -- -- 77
2019-09-19 16:00:00 22.9 6 Nordeste 12 Norte 0 -- -- 69
2019-09-19 15:00:00 22.4 6 Nordeste 12 Norte 0 -- -- 71
2019-09-19 14:00:00 21.8 4 Noroeste 11 Noroeste 0 -- -- 70
2019-09-19 13:00:00 20.6 5 Noroeste 11 Oeste 0 -- -- 76
2019-09-19 12:00:00 19.1 2 Sudoeste 12 Oeste 0 -- -- 83
2019-09-19 11:00:00 17.8 4 Norte 13 Noroeste 0 -- -- 87
2019-09-19 10:00:00 15.8 3 Norte 8 Noroeste 0 -- -- 100
2019-09-19 09:00:00 14.7 0 Calma 5 Noroeste 0 -- -- 100
2019-09-19 08:00:00 14.2 0 Calma 3 Oeste 0 -- -- 100
2019-09-19 07:00:00 14.5 0 Calma 5 Sudoeste 0 -- -- 100
2019-09-19 06:00:00 15.2 3 Norte 9 Oeste 0 -- -- 100
2019-09-19 05:00:00 15.3 3 Noroeste 10 Oeste 0 -- -- 100
2019-09-19 04:00:00 15.2 0 Calma 6 Noroeste 0 -- -- 100
2019-09-19 03:00:00 15.3 0 Calma 12 Noroeste 0 -- -- 100
2019-09-19 02:00:00 15.7 4 Noroeste 14 Oeste 0 -- -- 100
2019-09-19 01:00:00 16.1 7 Noroeste 16 Noroeste 0 -- -- 100
2019-09-19 00:00:00 16.2 5 Noroeste 12 Norte 0 -- -- 100
2019-09-18 23:00:00 16.4 4 Noroeste 14 Noroeste 0 -- -- 100
2019-09-18 22:00:00 16.8 5 Noroeste 12 Noroeste 0 -- -- 98
2019-09-18 21:00:00 17.5 5 Noroeste 14 Oeste 0 -- -- 96
2019-09-18 20:00:00 18.4 4 Norte 11 Oeste 0 -- -- 94
2019-09-18 19:00:00 19.1 4 Norte 16 Norte 0 -- -- 91
2019-09-18 18:00:00 19.7 5 Noroeste 18 Noroeste 0 -- -- 88
2019-09-18 17:00:00 20 9 Noroeste 21 Noroeste 0 -- -- 85
2019-09-18 16:00:00 21.2 6 Noroeste 17 Noroeste 0 -- -- 81
2019-09-18 15:00:00 20 4 Noroeste 15 Noroeste 0 -- -- 86
2019-09-18 14:00:00 19.3 2 Oeste 15 Oeste 0 -- -- 89
2019-09-18 13:00:00 19.3 6 Noroeste 15 Noroeste 0 -- -- 88
2019-09-18 12:00:00 18.7 4 Norte 13 Noroeste 0 -- -- 92
2019-09-18 11:00:00 17.4 3 Oeste 12 Este 0 -- -- 97
2019-09-18 10:00:00 17.2 0 Calma 9 Oeste 0 -- -- 100
2019-09-18 09:00:00 16.3 2 Noroeste 6 Norte 0 -- -- 100
2019-09-18 08:00:00 14.9 3 Oeste 6 Noroeste 0 -- -- 100
2019-09-18 07:00:00 15.4 2 Oeste 5 Sudoeste 0 -- -- 100
2019-09-18 06:00:00 15.7 2 Sudoeste 5 Oeste 0 -- -- 100
2019-09-18 05:00:00 16.4 3 Sudoeste 6 Sudoeste 0 -- -- 100
2019-09-18 04:00:00 17.1 0 Calma 12 Norte 0 -- -- 100
2019-09-18 03:00:00 17.2 4 Noroeste 14 Noroeste 0 -- -- 100
2019-09-18 02:00:00 17.2 5 Noroeste 15 Oeste 0 -- -- 100
2019-09-18 01:00:00 17.2 5 Noroeste 15 Oeste 0 -- -- 100
2019-09-18 00:00:00 17.3 6 Noroeste 17 Noroeste 0 -- -- 100
2019-09-17 23:00:00 17 0 Calma 8 Noroeste 0 -- -- 97
2019-09-17 22:00:00 18 4 Noroeste 11 Noroeste 0 -- -- 96
2019-09-17 21:00:00 18.2 3 Norte 12 Noroeste 0 -- -- 92
2019-09-15 18:00:00 16.3 3 Sur 16 Sudoeste 2 -- -- 98
2019-09-15 17:00:00 17.2 4 Sudeste 14 Sudeste 2.4 -- -- 93
2019-09-15 16:00:00 20.1 5 Sur 32 Sur 2.2 -- -- 78
2019-09-15 15:00:00 25.8 3 Noroeste 8 Nordeste 0 -- -- 50
2019-09-15 14:00:00 25.8 4 Este 15 Este 0 -- -- 53
2019-09-15 13:00:00 25 7 Este 13 Este 0 -- -- 57
2019-09-15 12:00:00 23.4 4 Este 10 Este 0 -- -- 66
2019-09-15 11:00:00 20.3 2 Este 6 Sur 0 -- -- 73
2019-09-15 10:00:00 17.8 0 Calma 5 Sudoeste 0 -- -- 91
2019-09-15 09:00:00 16.9 3 Sudoeste 5 Sur 0 -- -- 89
2019-09-15 08:00:00 17.1 3 Sudoeste 9 Sudeste 0 -- -- 82
2019-09-15 07:00:00 17.3 4 Sudoeste 7 Sur 0 -- -- 83
2019-09-15 06:00:00 16.7 4 Sudoeste 6 Sudoeste 0 -- -- 83
2019-09-15 05:00:00 17.1 4 Sudoeste 9 Sudeste 0 -- -- 87
2019-09-15 04:00:00 17.7 6 Sudeste 9 Sudeste 0 -- -- 85
2019-09-15 03:00:00 17.8 5 Sur 10 Sudeste 0 -- -- 88
2019-09-15 02:00:00 18.3 4 Sudoeste 8 Sudeste 0 -- -- 87
2019-09-15 01:00:00 17.9 3 Sur 8 Sudeste 0 -- -- 90
2019-09-15 00:00:00 18.4 6 Sur 10 Sur 0 -- -- 85
2019-09-14 23:00:00 18.4 4 Sudeste 8 Sudeste 0 -- -- 87
2019-09-14 22:00:00 18.2 3 Sur 5 Sudoeste 0 -- -- 89
2019-09-14 21:00:00 18.6 0 Calma 5 Sudoeste 0 -- -- 87
2019-09-14 20:00:00 19.5 4 Oeste 7 Oeste 0 -- -- 77
2019-09-14 19:00:00 21.9 3 Norte 10 Norte 0 -- -- 68
2019-09-14 18:00:00 23.5 8 Norte 24 Norte 0 -- -- 59
2019-09-14 17:00:00 25.3 10 Nordeste 23 Nordeste 0 -- -- 54
2019-09-14 16:00:00 25.7 8 Nordeste 16 Nordeste 0 -- -- 59
2019-09-14 15:00:00 25.6 4 Sudeste 21 Este 0 -- -- 51
2019-09-14 14:00:00 26.1 6 Sudeste 20 Este 0 -- -- 52
2019-09-14 13:00:00 24.7 4 Sudeste 13 Este 0 -- -- 59
2019-09-14 12:00:00 23.1 4 Sudeste 10 Este 0 -- -- 70
2019-09-14 11:00:00 20.6 4 Sudeste 8 Sudeste 0 -- -- 76
2019-09-14 10:00:00 18.1 3 Sudeste 7 Sudeste 0 -- -- 85
2019-09-14 09:00:00 16.3 3 Sudoeste 12 Sudeste 0 -- -- 93
2019-09-14 08:00:00 16.1 4 Sur 10 Sur 0 -- -- 92
2019-09-14 07:00:00 15.9 3 Sur 6 Sur 0 -- -- 95
2019-09-14 06:00:00 16 4 Sur 9 Sur 0.2 -- -- 97
2019-09-14 05:00:00 16.2 3 Sur 10 Sudeste 0 -- -- 97
2019-09-14 04:00:00 16 4 Sur 10 Sudeste 0 -- -- 100
2019-09-14 03:00:00 15.7 5 Sur 11 Sur 0 -- -- 99
2019-09-14 02:00:00 15.4 3 Sudeste 9 Sudeste 0 -- -- 100
2019-09-14 01:00:00 15.2 2 Sur 7 Sudeste 0 -- -- 100
2019-09-14 00:00:00 15.2 3 Sudoeste 5 Sur 0 -- -- 98
2019-09-13 23:00:00 15.3 0 Calma 5 Norte 0 -- -- 97
2019-09-13 22:00:00 16 2 Sudoeste 6 Sudoeste 0 -- -- 93
2019-09-13 21:00:00 17.4 3 Norte 10 Oeste 0 -- -- 90
2019-09-13 20:00:00 19 3 Oeste 12 Norte 0 -- -- 86
2019-09-13 19:00:00 20.8 4 Norte 10 Nordeste 0 -- -- 76
2019-09-13 18:00:00 22.2 3 Norte 17 Nordeste 0 -- -- 68
2019-09-13 17:00:00 24 6 Nordeste 16 Nordeste 0 -- -- 64
2019-09-13 16:00:00 23.8 7 Norte 15 Nordeste 0 -- -- 62
2019-09-13 15:00:00 24.3 3 Sudeste 12 Nordeste 0 -- -- 58
2019-09-13 14:00:00 23.4 5 Norte 14 Norte 0 -- -- 58
2019-09-13 13:00:00 22.2 3 Noroeste 8 Norte 0 -- -- 68
2019-09-13 12:00:00 20.2 3 Este 7 Este 0 -- -- 78
2019-09-13 11:00:00 16.8 3 Este 8 Este 0 -- -- 89
2019-09-13 10:00:00 13.5 2 Este 8 Sur 0 -- -- 100
2019-09-13 09:00:00 11.9 3 Sudeste 9 Sur 0 -- -- 100
2019-09-13 08:00:00 11.2 0 Calma 5 Oeste 0 -- -- 100
2019-09-13 07:00:00 11.3 3 Oeste 6 Sudeste 0 -- -- 100
2019-09-13 06:00:00 11.4 0 Calma 9 Oeste 0 -- -- 100
2019-09-13 05:00:00 11.5 2 Oeste 5 Oeste 0 -- -- 100
2019-09-13 04:00:00 11.6 2 Sur 5 Oeste 0 -- -- 99
2019-09-13 03:00:00 11.9 2 Sudoeste 6 Sudoeste 0 -- -- 98
2019-09-13 02:00:00 12 2 Sudoeste 5 Sudoeste 0 -- -- 97
2019-09-13 01:00:00 12.6 3 Sudoeste 6 Oeste 0 -- -- 99
2019-09-13 00:00:00 13 4 Sudoeste 5 Oeste 0 -- -- 100
2019-09-12 23:00:00 13.3 4 Sudoeste 5 Oeste 0 -- -- 99
2019-09-12 22:00:00 13.8 3 Oeste 6 Oeste 0 -- -- 97
2019-09-12 21:00:00 14.6 4 Oeste 8 Oeste 0 -- -- 93
2019-09-12 20:00:00 16.5 4 Oeste 12 Noroeste 0 -- -- 86
2019-09-12 19:00:00 19.9 3 Noroeste 10 Norte 0 -- -- 72
2019-09-12 18:00:00 20.9 5 Norte 15 Norte 0 -- -- 69
2019-09-12 17:00:00 21.3 8 Nordeste 19 Norte 0 -- -- 64
2019-09-12 16:00:00 21.5 8 Norte 18 Norte 0 -- -- 64
2019-09-12 15:00:00 21.7 7 Este 14 Nordeste 0 -- -- 68
2019-09-12 14:00:00 20.8 4 Este 13 Nordeste 0 -- -- 65
2019-09-12 13:00:00 19.7 4 Este 14 Sudeste 0 -- -- 71
2019-09-12 12:00:00 17.8 4 Norte 13 Nordeste 0 -- -- 77
2019-09-12 11:00:00 15.9 3 Sudeste 7 Este 0 -- -- 86
2019-09-12 10:00:00 12.7 2 Este 5 Este 0 -- -- 100
2019-09-12 09:00:00 11.6 0 Calma 5 Sur 0 -- -- 100
2019-09-12 08:00:00 11.1 4 Sur 9 Sudeste 0 -- -- 100
2019-09-12 07:00:00 10.9 3 Oeste 6 Sudoeste 0 -- -- 100
2019-09-12 06:00:00 11.5 2 Oeste 5 Sudoeste 0 -- -- 100
2019-09-12 05:00:00 12.2 3 Sudoeste 4 Sur 0 -- -- 100
2019-09-12 04:00:00 12.4 3 Sudoeste 4 Sudoeste 0 -- -- 100
2019-09-12 03:00:00 12.9 2 Sur 6 Oeste 0 -- -- 100
2019-09-12 02:00:00 12.7 3 Sudoeste 6 Norte 0 -- -- 98
2019-09-12 01:00:00 14 3 Noroeste 11 Norte 0 -- -- 95
2019-09-12 00:00:00 14.1 3 Noroeste 8 Norte 0 -- -- 95
2019-09-11 23:00:00 14 2 Oeste 10 Oeste 0 -- -- 95
2019-09-11 22:00:00 13.8 3 Noroeste 11 Este 0 -- -- 93
2019-09-11 21:00:00 14 3 Sur 12 Sudeste 0 -- -- 91
2019-09-11 20:00:00 15.5 5 Norte 15 Norte 0 -- -- 83
2019-09-11 19:00:00 17.4 5 Norte 20 Norte 0 -- -- 74
2019-09-11 18:00:00 18 9 Norte 24 Nordeste 0 -- -- 72
2019-09-11 17:00:00 18 7 Norte 21 Norte 0 -- -- 69
2019-09-11 16:00:00 18.2 6 Norte 23 Nordeste 0 -- -- 66
2019-09-11 15:00:00 18.4 11 Nordeste 25 Nordeste 0 -- -- 66
2019-09-11 14:00:00 17.6 5 Nordeste 21 Nordeste 0.2 -- -- 76
2019-09-11 13:00:00 16.7 4 Norte 25 Norte 0 -- -- 82
2019-09-11 12:00:00 15.7 3 Norte 23 Nordeste 0 -- -- 84
2019-09-11 11:00:00 15.9 11 Norte 38 Nordeste 0 -- -- 83
2019-09-11 10:00:00 15.2 9 Norte 26 Nordeste 0 -- -- 92
2019-09-11 09:00:00 14.3 6 Norte 15 Norte 0 -- -- 98
2019-09-11 08:00:00 13.9 3 Noroeste 11 Noroeste 0 -- -- 100
2019-09-11 07:00:00 13.8 4 Noroeste 13 Noroeste 0 -- -- 98
2019-09-11 06:00:00 13.8 6 Norte 16 Nordeste 0 -- -- 99
2019-09-11 05:00:00 13.7 4 Norte 24 Nordeste 0 -- -- 99
2019-09-11 04:00:00 13.7 7 Norte 23 Norte 0.6 -- -- 100
2019-09-11 03:00:00 13.3 3 Oeste 15 Este 0.8 -- -- 100
2019-09-11 02:00:00 13.2 6 Norte 18 Nordeste 1.6 -- -- 100
2019-09-11 01:00:00 12.7 4 Oeste 14 Oeste 0.6 -- -- 99
2019-09-11 00:00:00 12.8 5 Noroeste 16 Norte 0 -- -- 95
2019-09-10 23:00:00 12.8 9 Noroeste 18 Noroeste 0 -- -- 92
2019-09-10 22:00:00 12.6 4 Noroeste 13 Noroeste 0 -- -- 96
2019-09-10 21:00:00 12.7 4 Noroeste 17 Noroeste 0 -- -- 94
2019-09-10 20:00:00 12.8 4 Noroeste 16 Nordeste 0 -- -- 93
2019-09-10 19:00:00 13 8 Norte 28 Nordeste 0 -- -- 87
2019-09-10 18:00:00 13.3 9 Norte 41 Nordeste 0 -- -- 93
2019-09-10 17:00:00 13.3 10 Norte 33 Nordeste 1 -- -- 97
2019-09-10 16:00:00 13.2 7 Norte 24 Oeste 0.6 -- -- 100
2019-09-10 15:00:00 13.1 6 Noroeste 22 Sudoeste 1 -- -- 100
2019-09-10 14:00:00 12.7 7 Noroeste 19 Oeste 1.8 -- -- 100
2019-09-10 13:00:00 12.1 8 Oeste 18 Oeste 0.6 -- -- 100
2019-09-10 12:00:00 11 8 Noroeste 21 Noroeste 10 -- -- 100
2019-09-10 11:00:00 10.1 5 Norte 23 Noroeste 9.2 -- -- 100
2019-09-10 10:00:00 10.2 7 Noroeste 29 Norte 5 -- -- 100
2019-09-10 09:00:00 9.7 9 Noroeste 22 Oeste 3.6 -- -- 100
2019-09-10 08:00:00 9.5 6 Norte 19 Noroeste 3 -- -- 100
2019-09-10 07:00:00 9.7 7 Noroeste 17 Noroeste 6.2 -- -- 100
2019-09-10 06:00:00 9.6 6 Noroeste 27 Oeste 0.2 -- -- 100
2019-09-10 05:00:00 10.6 8 Noroeste 22 Noroeste 4.2 -- -- 100
2019-09-10 04:00:00 11.1 6 Noroeste 23 Oeste 2.6 -- -- 100
2019-09-10 03:00:00 11.5 8 Noroeste 28 Oeste 1.6 -- -- 100
2019-09-10 02:00:00 11.5 8 Noroeste 24 Noroeste 1.4 -- -- 100
2019-09-10 01:00:00 12.1 9 Noroeste 32 Oeste 1 -- -- 99
2019-09-10 00:00:00 13.8 6 Norte 28 Nordeste 0 -- -- 89
2019-09-09 23:00:00 13.9 5 Noroeste 18 Oeste 0 -- -- 86
2019-09-09 22:00:00 13.9 0 Calma 10 Oeste 0 -- -- 89
2019-09-09 21:00:00 14.5 4 Noroeste 18 Noroeste 0 -- -- 83
2019-09-09 20:00:00 15.2 3 Noroeste 17 Noroeste 0 -- -- 77
2019-09-09 19:00:00 16.1 5 Noroeste 14 Oeste 0 -- -- 73
2019-09-09 18:00:00 16.9 7 Nordeste 21 Norte 0 -- -- 70
2019-09-09 17:00:00 17.2 7 Norte 22 Norte 0 -- -- 71
2019-09-09 16:00:00 17.5 11 Nordeste 21 Nordeste 0 -- -- 68
2019-09-09 15:00:00 18.7 6 Norte 17 Noroeste 0 -- -- 66
2019-09-09 14:00:00 17.7 7 Noroeste 16 Noroeste 0 -- -- 67
2019-09-09 13:00:00 16.8 4 Noroeste 18 Oeste 0 -- -- 73
2019-09-09 12:00:00 15.2 2 Este 7 Este 0 -- -- 83
2019-09-09 11:00:00 12.5 3 Sudeste 9 Sudeste 0 -- -- 100
2019-09-09 10:00:00 10.2 0 Calma 9 Sudeste 0 -- -- 100
2019-09-09 09:00:00 8.5 5 Sur 13 Sur 0 -- -- 100
2019-09-09 08:00:00 8.1 4 Sudoeste 9 Sudeste 0 -- -- 100
2019-09-09 07:00:00 8.3 3 Sur 6 Sur 0 -- -- 100
2019-09-09 06:00:00 8.6 5 Sur 10 Sudeste 0 -- -- 100
2019-09-09 05:00:00 9.2 4 Sur 8 Sur 0 -- -- 100
2019-09-09 04:00:00 9.1 3 Sur 5 Sur 0 -- -- 100
2019-09-09 03:00:00 9.8 4 Sur 8 Sudeste 0 -- -- 100
2019-09-09 02:00:00 9.9 3 Sudoeste 5 Sudoeste 0 -- -- 100
2019-09-09 01:00:00 10.2 3 Sudoeste 6 Sudoeste 0 -- -- 99
2019-09-09 00:00:00 10.6 3 Sudoeste 8 Sur 0 -- -- 98
2019-09-08 23:00:00 11 3 Sudeste 7 Sur 0 -- -- 97
2019-09-08 22:00:00 11.2 3 Sudoeste 10 Norte 0 -- -- 95
2019-09-08 21:00:00 12.4 3 Sudoeste 10 Norte 0 -- -- 89
2019-09-08 20:00:00 14.2 4 Oeste 13 Norte 0 -- -- 79
2019-09-08 19:00:00 17.1 5 Noroeste 13 Norte 0 -- -- 67
2019-09-08 18:00:00 18.9 5 Nordeste 18 Nordeste 0 -- -- 58
2019-09-08 17:00:00 18.9 6 Norte 16 Norte 0 -- -- 65
2019-09-08 16:00:00 18.2 3 Sudoeste 18 Este 0 -- -- 72
2019-09-08 15:00:00 18 5 Este 18 Este 0 -- -- 68
2019-09-08 14:00:00 16.9 6 Norte 17 Nordeste 0 -- -- 79
2019-09-08 13:00:00 16.5 5 Norte 21 Nordeste 0 -- -- 93
2019-09-08 12:00:00 14.9 4 Norte 10 Noroeste 0 -- -- 100
2019-09-08 11:00:00 13.7 4 Oeste 9 Sudoeste 0.4 -- -- 100
2019-09-08 10:00:00 13.4 3 Noroeste 10 Noroeste 1 -- -- 100
2019-09-08 09:00:00 12.8 2 Noroeste 8 Noroeste 0.8 -- -- 100
2019-09-08 08:00:00 12.5 3 Noroeste 13 Oeste 0.4 -- -- 100
2019-09-08 07:00:00 12.5 3 Norte 7 Noroeste 0.2 -- -- 100
2019-09-08 06:00:00 12.5 0 Calma 10 Oeste 0.4 -- -- 100
2019-09-08 05:00:00 12.6 5 Noroeste 10 Noroeste 0 -- -- 100
2019-09-08 04:00:00 12.6 3 Noroeste 7 Noroeste 0.2 -- -- 100
2019-09-08 03:00:00 12.7 4 Noroeste 9 Oeste 0.6 -- -- 100
2019-09-08 02:00:00 13.2 3 Noroeste 9 Oeste 0 -- -- 97
2019-09-08 01:00:00 13.5 2 Norte 12 Oeste 0 -- -- 92
2019-09-08 00:00:00 12.3 3 Oeste 7 Oeste 0 -- -- 95
2019-09-07 23:00:00 13.5 3 Oeste 9 Oeste 0 -- -- 89
2019-09-07 22:00:00 13.6 0 Calma 5 Sudoeste 0 -- -- 92
2019-09-07 21:00:00 13.1 4 Sudoeste 9 Nordeste 0 -- -- 89
2019-09-07 20:00:00 15.1 4 Norte 16 Nordeste 0 -- -- 78
2019-09-07 19:00:00 16.5 6 Nordeste 18 Nordeste 0 -- -- 74
2019-09-07 18:00:00 18.6 7 Norte 21 Nordeste 0 -- -- 66
2019-09-07 17:00:00 18.7 6 Norte 18 Norte 0 -- -- 67
2019-09-07 16:00:00 18.2 6 Norte 19 Nordeste 0 -- -- 66
2019-09-07 15:00:00 18.5 4 Norte 21 Norte 0 -- -- 66
2019-09-07 14:00:00 18 3 Nordeste 16 Nordeste 0 -- -- 75
2019-09-07 13:00:00 17.2 6 Norte 13 Norte 0 -- -- 74
2019-09-07 12:00:00 15.9 5 Oeste 11 Oeste 0 -- -- 79
2019-09-07 11:00:00 13.8 3 Noroeste 12 Oeste 0 -- -- 88
2019-09-07 10:00:00 12.8 4 Noroeste 10 Oeste 0 -- -- 91
2019-09-07 09:00:00 10.6 3 Noroeste 8 Oeste 0 -- -- 100
2019-09-07 08:00:00 9.7 4 Oeste 8 Oeste 0 -- -- 100
2019-09-07 07:00:00 9.7 3 Oeste 6 Norte 0 -- -- 99
2019-09-07 06:00:00 10.1 2 Noroeste 8 Noroeste 0 -- -- 96
2019-09-07 05:00:00 10.7 3 Oeste 8 Oeste 0 -- -- 97
2019-09-07 04:00:00 10.8 4 Oeste 8 Oeste 0 -- -- 95
2019-09-07 03:00:00 11.8 3 Oeste 8 Sudoeste 0 -- -- 92
2019-09-07 02:00:00 12.1 3 Oeste 9 Oeste 0 -- -- 91
2019-09-07 01:00:00 12.1 3 Noroeste 7 Noroeste 0 -- -- 90
2019-09-07 00:00:00 12.7 3 Oeste 6 Noroeste 0 -- -- 87
2019-09-06 23:00:00 13 3 Oeste 8 Oeste 0 -- -- 86
2019-09-06 22:00:00 13.5 3 Oeste 9 Noroeste 0 -- -- 83
2019-09-06 21:00:00 13.8 4 Norte 16 Norte 0 -- -- 80
2019-09-06 20:00:00 14.4 5 Norte 19 Nordeste 0 -- -- 76
2019-09-06 19:00:00 16.4 5 Norte 17 Norte 0 -- -- 65
2019-09-06 18:00:00 16.5 5 Nordeste 19 Sudeste 0 -- -- 64
2019-09-06 17:00:00 15.9 7 Norte 19 Norte 0 -- -- 70
2019-09-06 16:00:00 17.3 4 Noroeste 27 Este 0 -- -- 60
2019-09-06 15:00:00 17 10 Este 27 Sudeste 0 -- -- 61
2019-09-06 14:00:00 16.8 5 Este 23 Norte 0 -- -- 59
2019-09-06 13:00:00 17 6 Norte 27 Este 0 -- -- 60
2019-09-06 12:00:00 16.2 6 Nordeste 16 Nordeste 0 -- -- 64
2019-09-06 11:00:00 15.9 4 Sudeste 11 Nordeste 0 -- -- 75
2019-09-06 10:00:00 13.4 3 Sur 9 Sur 0 -- -- 84
2019-09-06 09:00:00 13.1 2 Sudeste 12 Sudeste 0 -- -- 88
2019-09-06 08:00:00 12 2 Sudeste 6 Sur 0 -- -- 95
2019-09-06 07:00:00 12.2 0 Calma 12 Noroeste 0 -- -- 92
2019-09-06 06:00:00 11.7 6 Oeste 12 Oeste 0 -- -- 92
2019-09-06 05:00:00 11.6 3 Oeste 10 Noroeste 0 -- -- 92
2019-09-06 04:00:00 12.9 3 Noroeste 10 Norte 0 -- -- 87
2019-09-06 03:00:00 12.9 4 Noroeste 15 Noroeste 0 -- -- 87
2019-09-06 02:00:00 12.7 2 Oeste 12 Oeste 0 -- -- 89
2019-09-06 01:00:00 12.4 4 Oeste 8 Sur 0 -- -- 96
2019-09-06 00:00:00 12.6 4 Sur 12 Nordeste 0 -- -- 94
2019-09-05 23:00:00 12.7 3 Oeste 12 Noroeste 0 -- -- 100
2019-09-05 22:00:00 12.2 4 Oeste 7 Sudoeste 0 -- -- 97
2019-09-05 21:00:00 12.1 3 Sudoeste 9 Oeste 0 -- -- 93
2019-09-05 20:00:00 14.2 4 Oeste 9 Norte 0 -- -- 83
2019-09-05 19:00:00 14.9 4 Sudeste 26 Este 0 -- -- 78
2019-09-05 18:00:00 15.5 8 Este 17 Este 0 -- -- 75
2019-09-05 17:00:00 16.6 3 Nordeste 14 Norte 0 -- -- 78
2019-09-05 16:00:00 15.5 3 Noroeste 10 Norte 0 -- -- 85
2019-09-05 15:00:00 14.6 5 Noroeste 20 Sudeste 1.4 -- -- 92
2019-09-05 14:00:00 14.9 7 Nordeste 17 Nordeste 0.2 -- -- 88
2019-09-05 13:00:00 16.9 4 Noroeste 16 Norte 0 -- -- 78
2019-09-05 12:00:00 15.5 5 Norte 24 Norte 0 -- -- 81
2019-09-05 11:00:00 14.9 5 Norte 13 Sudeste 0 -- -- 93
2019-09-05 10:00:00 13.4 2 Noroeste 10 Noroeste 0 -- -- 100
2019-09-05 09:00:00 12.6 4 Oeste 11 Sudoeste 0.2 -- -- 100
2019-09-05 08:00:00 12.5 5 Oeste 14 Nordeste 0 -- -- 100
2019-09-05 07:00:00 13 5 Noroeste 14 Noroeste 0.2 -- -- 100
2019-09-05 06:00:00 13.2 4 Oeste 18 Noroeste 0 -- -- 100
2019-09-05 05:00:00 13.6 4 Noroeste 26 Norte 0.2 -- -- 100
2019-09-05 04:00:00 14 8 Norte 22 Noroeste 1.8 -- -- 100
2019-09-05 03:00:00 13.8 8 Noroeste 27 Noroeste 1.6 -- -- 100
2019-09-05 02:00:00 14.1 8 Noroeste 26 Noroeste 0.2 -- -- 96
2019-09-05 01:00:00 14.6 5 Noroeste 13 Noroeste 0 -- -- 94
2019-09-05 00:00:00 14.7 5 Noroeste 16 Oeste 0 -- -- 90
2019-09-04 23:00:00 15.2 3 Noroeste 12 Oeste 0 -- -- 88
2019-09-04 22:00:00 15.3 5 Noroeste 11 Oeste 0 -- -- 88
2019-09-04 21:00:00 15.8 4 Noroeste 21 Nordeste 0 -- -- 84
2019-09-04 20:00:00 17 5 Norte 18 Nordeste 0 -- -- 80
2019-09-04 19:00:00 18.6 10 Nordeste 20 Nordeste 0 -- -- 75
2019-09-04 18:00:00 18.6 8 Nordeste 20 Norte 0 -- -- 79
2019-09-04 17:00:00 20.4 11 Norte 25 Nordeste 0 -- -- 72
2019-09-04 16:00:00 21.1 9 Nordeste 24 Nordeste 0 -- -- 69
2019-09-04 15:00:00 21 6 Nordeste 24 Norte 0 -- -- 72
2019-09-04 14:00:00 20.5 8 Nordeste 16 Nordeste 0 -- -- 67
2019-09-04 13:00:00 20 7 Nordeste 15 Oeste 0 -- -- 76
2019-09-04 12:00:00 19 4 Noroeste 13 Oeste 0 -- -- 80
2019-09-04 11:00:00 17.5 3 Noroeste 12 Norte 0 -- -- 84
2019-09-04 10:00:00 14 0 Calma 6 Sur 0 -- -- 92
2019-09-04 09:00:00 12 2 Sudeste 9 Sudeste 0 -- -- 98
2019-09-04 08:00:00 11.4 3 Sur 6 Sur 0 -- -- 98
2019-09-04 07:00:00 11.1 4 Sur 10 Sudeste 0 -- -- 97
2019-09-04 06:00:00 11.1 4 Sur 7 Sudeste 0 -- -- 97
2019-09-04 05:00:00 10.8 3 Sur 6 Sudeste 0 -- -- 95
2019-09-04 04:00:00 10.9 3 Sur 5 Oeste 0 -- -- 93
2019-09-04 03:00:00 11.2 3 Sudoeste 5 Oeste 0 -- -- 97
2019-09-04 02:00:00 11.4 2 Sudoeste 5 Sudoeste 0 -- -- 94
2019-09-04 01:00:00 11.9 4 Sudoeste 6 Sudoeste 0 -- -- 92
2019-09-04 00:00:00 12.2 3 Sudoeste 5 Sudoeste 0 -- -- 93
2019-09-03 23:00:00 12.7 3 Sudoeste 5 Sudoeste 0 -- -- 92
2019-09-03 22:00:00 13.1 4 Sudoeste 6 Sudoeste 0 -- -- 90
2019-09-03 21:00:00 14.3 4 Sudoeste 11 Norte 0 -- -- 84
2019-09-03 20:00:00 17.1 6 Nordeste 18 Nordeste 0 -- -- 69
2019-09-03 19:00:00 19.8 5 Norte 17 Norte 0 -- -- 57
2019-09-03 18:00:00 20.8 5 Noroeste 21 Nordeste 0 -- -- 50
2019-09-03 17:00:00 21.3 11 Nordeste 20 Norte 0 -- -- 50
2019-09-03 16:00:00 21.6 7 Norte 20 Nordeste 0 -- -- 54
2019-09-03 15:00:00 21.6 7 Norte 18 Norte 0 -- -- 52
2019-09-03 14:00:00 22 5 Nordeste 21 Sur 0 -- -- 56
2019-09-03 13:00:00 21 5 Este 22 Este 0 -- -- 56
2019-09-03 12:00:00 19.3 6 Nordeste 11 Nordeste 0 -- -- 65
2019-09-03 11:00:00 16.7 3 Norte 9 Este 0 -- -- 86
2019-09-03 10:00:00 13.6 3 Norte 8 Noroeste 0 -- -- 100
2019-09-03 09:00:00 12.1 0 Calma 3 Nordeste 0 -- -- 100
2019-09-03 08:00:00 11 0 Calma 4 Oeste 0 -- -- 100
2019-09-03 07:00:00 11 0 Calma 3 Sudoeste 0 -- -- 100
2019-09-03 06:00:00 11.4 2 Oeste 5 Oeste 0 -- -- 100
2019-09-03 05:00:00 11.6 0 Calma 5 Sudoeste 0 -- -- 100
2019-09-03 04:00:00 11.9 0 Calma 6 Oeste 0 -- -- 100
2019-09-03 03:00:00 12.3 3 Oeste 6 Oeste 0 -- -- 100
2019-09-03 02:00:00 12.6 0 Calma 6 Oeste 0 -- -- 99
2019-09-03 01:00:00 13 2 Sudoeste 6 Sudoeste 0 -- -- 96
2019-09-03 00:00:00 13.2 3 Sudoeste 6 Sudoeste 0 -- -- 95
2019-09-02 23:00:00 12.8 3 Oeste 7 Sudoeste 0 -- -- 94
2019-09-02 22:00:00 13 5 Sudoeste 8 Sudoeste 0 -- -- 92
2019-09-02 21:00:00 14.1 4 Sudoeste 10 Norte 0 -- -- 87
2019-09-02 20:00:00 16.5 3 Noroeste 15 Norte 0 -- -- 73
2019-09-02 19:00:00 19 5 Sudeste 23 Este 0 -- -- 62
2019-09-02 18:00:00 19.6 6 Este 16 Norte 0 -- -- 60
2019-09-02 17:00:00 19.1 5 Noroeste 18 Este 0 -- -- 65
2019-09-02 16:00:00 18.5 6 Nordeste 19 Nordeste 0 -- -- 67
2019-09-02 15:00:00 18.8 9 Norte 17 Nordeste 0 -- -- 67
2019-09-02 14:00:00 17.4 4 Nordeste 19 Norte 0 -- -- 76
2019-09-02 13:00:00 16.5 3 Norte 15 Nordeste 0 -- -- 84
2019-09-02 12:00:00 15.1 6 Oeste 13 Noroeste 0 -- -- 90
2019-09-02 11:00:00 14.7 4 Noroeste 12 Oeste 0 -- -- 96
2019-09-02 10:00:00 13 0 Calma 8 Oeste 0 -- -- 100
2019-09-02 09:00:00 11.8 0 Calma 4 Sudoeste 0 -- -- 100
2019-09-02 08:00:00 11.1 0 Calma 5 Sudoeste 0 -- -- 100
2019-09-02 07:00:00 12 0 Calma 4 Sudoeste 0 -- -- 100
2019-09-02 06:00:00 11.9 3 Sudoeste 8 Oeste 0 -- -- 100
2019-09-02 05:00:00 12.2 4 Oeste 6 Oeste 0 -- -- 100
2019-09-02 04:00:00 12.2 2 Oeste 6 Sudoeste 0.2 -- -- 100
2019-09-02 03:00:00 12.6 3 Sudoeste 7 Oeste 0 -- -- 100
2019-09-02 02:00:00 13.1 4 Oeste 9 Sudoeste 0 -- -- 100
2019-09-02 01:00:00 13.4 4 Oeste 12 Nordeste 0.2 -- -- 100
2019-09-02 00:00:00 13.6 5 Oeste 17 Nordeste 0.4 -- -- 100
2019-09-01 23:00:00 14 6 Norte 22 Nordeste 1.2 -- -- 100
2019-09-01 22:00:00 14.8 6 Norte 20 Norte 1.4 -- -- 100
2019-09-01 21:00:00 15.3 5 Norte 17 Nordeste 1.2 -- -- 100
2019-09-01 20:00:00 15.8 4 Norte 14 Noroeste 0.2 -- -- 100
2019-09-01 19:00:00 16.4 5 Norte 18 Sudeste 2.2 -- -- 100
2019-09-01 18:00:00 17.8 5 Norte 18 Este 1.2 -- -- 94
2019-09-01 17:00:00 20.2 4 Noroeste 17 Oeste 0 -- -- 80
2019-09-01 16:00:00 20.1 6 Noroeste 15 Noroeste 0 -- -- 80
2019-09-01 15:00:00 19.4 4 Noroeste 17 Oeste 0 -- -- 86
2019-09-01 14:00:00 18.1 5 Oeste 12 Noroeste 0 -- -- 88
2019-09-01 13:00:00 17.8 4 Noroeste 10 Noroeste 0 -- -- 94
2019-09-01 12:00:00 18 4 Noroeste 10 Noroeste 0 -- -- 95
2019-09-01 11:00:00 17 0 Calma 6 Este 0 -- -- 100
2019-09-01 10:00:00 16.6 2 Sudeste 5 Nordeste 0 -- -- 100
2019-09-01 09:00:00 15.9 0 Calma 3 Este 0 -- -- 100
2019-09-01 08:00:00 15.3 0 Calma 3 Sudoeste 0 -- -- 100
2019-09-01 07:00:00 15 0 Calma 5 Sudeste 0.2 -- -- 100
2019-09-01 06:00:00 15.3 0 Calma 5 Oeste 0 -- -- 100
2019-09-01 05:00:00 15.2 3 Sudoeste 4 Oeste 0 -- -- 100
2019-09-01 04:00:00 15.2 3 Oeste 5 Sur 0 -- -- 100
2019-09-01 03:00:00 15.4 2 Sudoeste 3 Sudoeste 0 -- -- 100
2019-09-01 02:00:00 16.2 3 Sudoeste 5 Nordeste 0 -- -- 100
2019-09-01 01:00:00 16.9 2 Norte 8 Norte 0 -- -- 100
2019-09-01 00:00:00 17 2 Noroeste 11 Noroeste 0.2 -- -- 100
2019-08-31 23:00:00 17.2 3 Noroeste 9 Noroeste 0.8 -- -- 100
2019-08-31 22:00:00 17.3 2 Noroeste 9 Norte 0 -- -- 100
2019-08-31 21:00:00 17.6 3 Noroeste 12 Nordeste 0.8 -- -- 100
2019-08-31 20:00:00 18.5 2 Norte 13 Nordeste 0 -- -- 96
2019-08-31 19:00:00 18.9 5 Norte 11 Nordeste 0 -- -- 93
2019-08-31 18:00:00 19.1 5 Norte 15 Norte 0 -- -- 91
2019-08-31 17:00:00 19.9 5 Nordeste 17 Norte 0 -- -- 90
2019-08-31 16:00:00 20.7 8 Nordeste 14 Norte 0 -- -- 88
2019-08-31 15:00:00 20.6 4 Norte 10 Norte 0 -- -- 90
2019-08-31 14:00:00 20.7 3 Noroeste 14 Noroeste 0 -- -- 90
2019-08-31 13:00:00 20.3 5 Oeste 15 Noroeste 0 -- -- 91
2019-08-31 12:00:00 21 5 Noroeste 13 Oeste 0 -- -- 90
2019-08-31 11:00:00 19.2 4 Noroeste 9 Noroeste 0 -- -- 97
2019-08-31 10:00:00 18.4 3 Nordeste 8 Norte 0 -- -- 100
2019-08-31 09:00:00 17.9 4 Norte 7 Norte 0 -- -- 100
2019-08-31 08:00:00 17.5 2 Oeste 4 Oeste 0 -- -- 100
2019-08-31 07:00:00 18 2 Sudoeste 8 Sudeste 0 -- -- 100
2019-08-31 06:00:00 18.3 3 Sudeste 10 Sur 0 -- -- 100
2019-08-31 05:00:00 18.5 0 Calma 5 Sudeste 0 -- -- 100
2019-08-31 04:00:00 18.6 0 Calma 6 Sudeste 0 -- -- 100
2019-08-31 03:00:00 18.5 0 Calma 4 Nordeste 0 -- -- 100
2019-08-31 02:00:00 18.6 0 Calma 5 Noroeste 0 -- -- 100
2019-08-31 01:00:00 18.7 0 Calma 7 Norte 0 -- -- 100
2019-08-31 00:00:00 18.6 3 Norte 7 Norte 0 -- -- 99
2019-08-30 23:00:00 18.9 3 Noroeste 9 Noroeste 0 -- -- 99
2019-08-30 22:00:00 19.1 2 Norte 11 Norte 0 -- -- 98
2019-08-30 21:00:00 20 3 Norte 8 Norte 0 -- -- 92
2019-08-30 20:00:00 21.3 4 Norte 12 Norte 0 -- -- 88
2019-08-30 19:00:00 23.3 6 Norte 15 Este 0 -- -- 80
2019-08-30 18:00:00 25.1 6 Norte 19 Nordeste 0 -- -- 75
2019-08-30 17:00:00 26.4 9 Norte 19 Nordeste 0 -- -- 72
2019-08-30 16:00:00 28.1 5 Norte 10 Norte 0 -- -- 63
2019-08-30 15:00:00 27.6 2 Sudoeste 15 Este 0 -- -- 67
2019-08-30 14:00:00 26 3 Nordeste 12 Nordeste 0 -- -- 68
2019-08-30 13:00:00 24.2 3 Este 12 Este 0 -- -- 71
2019-08-30 12:00:00 22.4 4 Sudeste 11 Este 0 -- -- 76
2019-08-30 11:00:00 19.9 5 Este 9 Este 0 -- -- 89
2019-08-30 10:00:00 17.5 4 Este 8 Este 0 -- -- 100
2019-08-30 09:00:00 16.7 2 Sudeste 5 Sudeste 0 -- -- 100
2019-08-30 08:00:00 15.6 0 Calma 4 Sudoeste 0 -- -- 100
2019-08-30 07:00:00 15.7 3 Sudoeste 5 Sudoeste 0 -- -- 100
2019-08-30 06:00:00 16 3 Sudoeste 5 Oeste 0 -- -- 100
2019-08-30 05:00:00 16.3 3 Sudoeste 4 Sudoeste 0 -- -- 99
2019-08-30 04:00:00 17.4 3 Sudoeste 4 Sudoeste 0 -- -- 96
2019-08-30 03:00:00 18.1 0 Calma 5 Nordeste 0 -- -- 97
2019-08-30 02:00:00 18.4 0 Calma 4 Noroeste 0 -- -- 97
2019-08-30 01:00:00 18.4 0 Calma 5 Norte 0 -- -- 95
2019-08-30 00:00:00 18.5 0 Calma 7 Nordeste 0 -- -- 93
2019-08-29 23:00:00 18.5 5 Nordeste 12 Norte 0 -- -- 91
2019-08-29 22:00:00 18.6 5 Nordeste 14 Norte 0 -- -- 91
2019-08-29 21:00:00 18.8 5 Nordeste 22 Nordeste 0 -- -- 91
2019-08-29 20:00:00 19.5 8 Nordeste 20 Nordeste 0 -- -- 89
2019-08-29 19:00:00 21.2 8 Nordeste 23 Nordeste 0 -- -- 83
2019-08-29 18:00:00 23.4 9 Nordeste 22 Norte 0 -- -- 75
2019-08-29 17:00:00 24.8 6 Nordeste 18 Nordeste 0 -- -- 71
2019-08-29 16:00:00 24.4 5 Nordeste 19 Norte 0 -- -- 72
2019-08-29 15:00:00 24.5 8 Nordeste 17 Nordeste 0 -- -- 71
2019-08-29 14:00:00 24.5 6 Nordeste 14 Nordeste 0 -- -- 72
2019-08-29 13:00:00 24.1 7 Nordeste 13 Norte 0 -- -- 73
2019-08-29 12:00:00 23.1 3 Sudeste 9 Sudeste 0 -- -- 72
2019-08-29 11:00:00 20.6 4 Sur 10 Sur 0 -- -- 82
2019-08-29 10:00:00 18.9 4 Este 10 Este 0 -- -- 92
2019-08-29 09:00:00 17 0 Calma 4 Sudoeste 0 -- -- 100
2019-08-29 08:00:00 16.2 0 Calma 4 Sudoeste 0 -- -- 99
2019-08-29 07:00:00 17.2 2 Sudoeste 4 Sudeste 0 -- -- 99
2019-08-29 06:00:00 17.7 0 Calma 3 Sudoeste 0 -- -- 100
2019-08-29 05:00:00 17.9 0 Calma 3 Sudoeste 0 -- -- 100
2019-08-29 04:00:00 18.2 0 Calma 4 Sudeste 0 -- -- 100
2019-08-29 03:00:00 18.3 0 Calma 4 Sudoeste 0 -- -- 100
2019-08-29 02:00:00 18.5 2 Sudeste 10 Este 0 -- -- 98
2019-08-29 01:00:00 18.3 0 Calma 20 Norte 0 -- -- 99
2019-08-29 00:00:00 18.5 4 Este 11 Este 0 -- -- 100
2019-08-28 23:00:00 18.8 2 Noroeste 7 Norte 0.2 -- -- 99
2019-08-28 22:00:00 19.1 4 Noroeste 15 Nordeste 0 -- -- 93
2019-08-28 21:00:00 19.5 3 Noroeste 15 Norte 0 -- -- 89
2019-08-28 20:00:00 20.1 5 Nordeste 16 Norte 0 -- -- 88
2019-08-28 19:00:00 21.3 5 Nordeste 15 Nordeste 0 -- -- 83
2019-08-28 18:00:00 23.6 6 Norte 21 Norte 0 -- -- 75
2019-08-28 17:00:00 25.2 8 Nordeste 23 Nordeste 0 -- -- 71
2019-08-28 16:00:00 25.9 7 Nordeste 19 Nordeste 0 -- -- 71
2019-08-28 15:00:00 26.2 8 Nordeste 14 Nordeste 0 -- -- 70
2019-08-28 14:00:00 25.9 4 Nordeste 13 Nordeste 0 -- -- 65
2019-08-28 13:00:00 24.5 6 Nordeste 11 Nordeste 0 -- -- 71
2019-08-28 12:00:00 23.2 3 Sudeste 13 Este 0 -- -- 77
2019-08-28 11:00:00 20.6 5 Este 16 Este 0 -- -- 86
2019-08-28 10:00:00 19 4 Este 10 Este 0 -- -- 92
2019-08-28 09:00:00 18.2 2 Este 4 Este 0 -- -- 99
2019-08-28 08:00:00 17.7 0 Calma 3 Sudoeste 0 -- -- 100
2019-08-28 07:00:00 17.7 0 Calma 4 Oeste 0 -- -- 100
2019-08-28 06:00:00 17.8 0 Calma 5 Sur 0 -- -- 100
2019-08-28 05:00:00 17.8 0 Calma 5 Sudeste 0 -- -- 100
2019-08-28 04:00:00 17.6 0 Calma 5 Sudeste 0 -- -- 100
2019-08-28 03:00:00 17.3 0 Calma 4 Oeste 0 -- -- 100
2019-08-28 02:00:00 17.7 0 Calma 4 Oeste 0 -- -- 100
2019-08-28 01:00:00 17.5 2 Oeste 5 Oeste 0 -- -- 100
2019-08-28 00:00:00 17.2 3 Sudoeste 4 Oeste 0 -- -- 98
2019-08-27 23:00:00 18.2 2 Sudoeste 6 Norte 0 -- -- 93
2019-08-27 22:00:00 19.2 2 Oeste 9 Este 0 -- -- 93
2019-08-27 21:00:00 19.4 4 Nordeste 17 Norte 0 -- -- 92
2019-08-27 20:00:00 20.3 4 Nordeste 14 Norte 0 -- -- 89
2019-08-27 19:00:00 21.6 7 Nordeste 15 Nordeste 0 -- -- 83
2019-08-27 18:00:00 21.6 8 Nordeste 17 Nordeste 0 -- -- 84
2019-08-27 17:00:00 22.2 6 Nordeste 18 Este 0 -- -- 82
2019-08-27 16:00:00 21.9 8 Nordeste 20 Norte 0 -- -- 82
2019-08-27 15:00:00 22.6 4 Norte 13 Nordeste 0 -- -- 80
2019-08-27 14:00:00 22.2 3 Sudeste 10 Nordeste 0 -- -- 74
2019-08-27 13:00:00 21.3 2 Sudeste 10 Norte 0 -- -- 81
2019-08-27 12:00:00 20.4 3 Norte 6 Nordeste 0 -- -- 86
2019-08-27 11:00:00 18.4 0 Calma 8 Noroeste 0 -- -- 98
2019-08-27 10:00:00 16.7 2 Nordeste 10 Sudeste 0 -- -- 100
2019-08-27 09:00:00 15.5 0 Calma 6 Sur 0.2 -- -- 100
2019-08-27 08:00:00 14.8 2 Sudeste 5 Sudoeste 0 -- -- 100
2019-08-27 07:00:00 14.2 3 Oeste 11 Sudeste 0 -- -- 100
2019-08-27 06:00:00 14.3 2 Sudoeste 8 Oeste 0 -- -- 100
2019-08-27 05:00:00 14.5 4 Oeste 7 Sudoeste 0 -- -- 100
2019-08-27 04:00:00 15.1 4 Sudoeste 8 Oeste 0 -- -- 100
2019-08-27 03:00:00 15.3 3 Sudoeste 12 Sur 0 -- -- 100
2019-08-27 02:00:00 15.6 5 Sur 13 Sudeste 0 -- -- 100
2019-08-27 01:00:00 15.6 5 Sur 15 Sudeste 0 -- -- 100
2019-08-27 00:00:00 16.9 0 Calma 18 Sudeste 3 -- -- 100
2019-08-26 23:00:00 17.6 6 Sudeste 16 Sudeste 1.2 -- -- 100
2019-08-26 22:00:00 18 3 Oeste 18 Oeste 2.2 -- -- 98
2019-08-26 21:00:00 19.5 8 Oeste 19 Oeste 0.8 -- -- 93
2019-08-26 20:00:00 21.3 7 Noroeste 19 Oeste 0 -- -- 82
2019-08-26 19:00:00 24 8 Noroeste 20 Oeste 0 -- -- 75
2019-08-26 18:00:00 29.1 5 Sudeste 18 Sur 0 -- -- 41
2019-08-26 17:00:00 27.2 4 Sur 20 Este 0 -- -- 58
2019-08-26 16:00:00 29.5 8 Sudeste 26 Este 0 -- -- 41
2019-08-26 15:00:00 27.3 5 Sudeste 17 Este 0 -- -- 46
2019-08-26 14:00:00 25.2 4 Sudeste 13 Este 0 -- -- 60
2019-08-26 13:00:00 23.5 4 Este 11 Sudeste 0 -- -- 71
2019-08-26 12:00:00 20.7 4 Sudeste 10 Este 0 -- -- 86
2019-08-26 11:00:00 18.9 3 Sudeste 10 Sudeste 0 -- -- 99
2019-08-26 10:00:00 18.3 3 Sudeste 7 Este 0 -- -- 100
2019-08-26 09:00:00 17.5 0 Calma 4 Este 0 -- -- 100
2019-08-26 08:00:00 17 0 Calma 4 Noroeste 0 -- -- 100
2019-08-26 07:00:00 16.9 2 Oeste 4 Oeste 0 -- -- 100
2019-08-26 06:00:00 17.7 0 Calma 5 Sudeste 0 -- -- 100
2019-08-26 05:00:00 17.9 0 Calma 5 Sudeste 0 -- -- 100
2019-08-26 04:00:00 17.8 2 Sudeste 10 Este 0.2 -- -- 100
2019-08-26 03:00:00 17.9 0 Calma 6 Sur 0 -- -- 100
2019-08-26 02:00:00 17.8 0 Calma 12 Este 0 -- -- 100
2019-08-26 01:00:00 17.8 3 Este 10 Norte 0 -- -- 100
2019-08-26 00:00:00 17.9 2 Oeste 10 Oeste 0 -- -- 100
2019-08-25 23:00:00 18 4 Noroeste 13 Nordeste 0 -- -- 100
2019-08-25 22:00:00 18.1 5 Nordeste 19 Norte 0 -- -- 100
2019-08-25 21:00:00 18.4 3 Noroeste 16 Nordeste 0 -- -- 99
2019-08-25 20:00:00 18.7 5 Norte 16 Nordeste 0 -- -- 98
2019-08-25 19:00:00 19.4 7 Nordeste 13 Nordeste 0 -- -- 92
2019-08-25 18:00:00 19.8 5 Este 15 Norte 0 -- -- 88
2019-08-25 17:00:00 20.1 4 Noroeste 16 Norte 0 -- -- 88
2019-08-25 16:00:00 20.3 6 Norte 14 Nordeste 0 -- -- 89
2019-08-25 15:00:00 20.1 6 Nordeste 16 Nordeste 0 -- -- 89
2019-08-25 14:00:00 20.8 6 Nordeste 16 Nordeste 0 -- -- 87
2019-08-25 13:00:00 20.5 9 Nordeste 17 Norte 0 -- -- 87
2019-08-25 12:00:00 20.9 9 Nordeste 15 Nordeste 0 -- -- 87
2019-08-25 11:00:00 20 3 Este 10 Este 0 -- -- 91
2019-08-25 10:00:00 18.1 4 Este 7 Este 0 -- -- 100
2019-08-25 09:00:00 17.2 0 Calma 3 Norte 0 -- -- 100
2019-08-25 08:00:00 16.8 0 Calma 4 Noroeste 0 -- -- 100
2019-08-25 07:00:00 16.7 2 Oeste 4 Oeste 0 -- -- 100
2019-08-25 06:00:00 16.7 0 Calma 3 Nordeste 0 -- -- 100
2019-08-25 05:00:00 16.7 0 Calma 6 Oeste 0.2 -- -- 100
2019-08-25 04:00:00 16.7 0 Calma 8 Oeste 0.2 -- -- 100
2019-08-25 03:00:00 16.9 4 Oeste 8 Noroeste 0.2 -- -- 100
2019-08-25 02:00:00 16.9 3 Noroeste 7 Norte 0.2 -- -- 100
2019-08-25 01:00:00 17.1 3 Noroeste 9 Noroeste 0.2 -- -- 100
2019-08-25 00:00:00 17.2 4 Noroeste 11 Oeste 0.4 -- -- 100
2019-08-24 23:00:00 17.6 4 Noroeste 11 Oeste 0.4 -- -- 100
2019-08-24 22:00:00 17.8 4 Oeste 12 Oeste 0 -- -- 100
2019-08-24 21:00:00 18.4 6 Oeste 14 Oeste 0 -- -- 94
2019-08-24 20:00:00 19.4 5 Noroeste 17 Oeste 0 -- -- 90
2019-08-24 19:00:00 21.1 6 Noroeste 22 Noroeste 0 -- -- 85
2019-08-24 18:00:00 24.4 9 Noroeste 22 Noroeste 0 -- -- 74
2019-08-24 17:00:00 27.1 7 Norte 18 Oeste 0 -- -- 68
2019-08-24 16:00:00 28.6 8 Norte 22 Norte 0 -- -- 60
2019-08-24 15:00:00 32.1 4 Este 15 Nordeste 0 -- -- 42
2019-08-24 14:00:00 31.3 4 Este 13 Este 0 -- -- 42
2019-08-24 13:00:00 29.8 6 Sudeste 14 Este 0 -- -- 43
2019-08-24 12:00:00 27.9 3 Sudeste 12 Sudeste 0 -- -- 56
2019-08-24 11:00:00 25 4 Sudeste 12 Sudeste 0 -- -- 60
2019-08-24 10:00:00 22.1 4 Sudeste 16 Sudeste 0 -- -- 61
2019-08-24 09:00:00 20.5 6 Sur 13 Sur 0 -- -- 68
2019-08-24 08:00:00 18 4 Sur 11 Sur 0 -- -- 71
2019-08-24 07:00:00 18.6 6 Sur 14 Sudeste 0 -- -- 68
2019-08-24 06:00:00 19.5 7 Sur 13 Sudeste 0 -- -- 61
2019-08-24 05:00:00 20.6 7 Sur 17 Sudeste 0 -- -- 57
2019-08-24 04:00:00 19.6 4 Sur 15 Sudeste 0 -- -- 63
2019-08-24 03:00:00 20.1 5 Sur 9 Sur 0 -- -- 62
2019-08-24 02:00:00 21 6 Sur 12 Sur 0 -- -- 60
2019-08-24 01:00:00 20.4 5 Sur 10 Sudeste 0 -- -- 67
2019-08-24 00:00:00 20.2 5 Sur 7 Sudeste 0 -- -- 62
2019-08-23 23:00:00 20.2 5 Sur 7 Sudoeste 0 -- -- 50
2019-08-23 22:00:00 20.3 4 Sudoeste 6 Sudoeste 0 -- -- 61
2019-08-23 21:00:00 21.9 3 Sudoeste 8 Sudoeste 0 -- -- 57
2019-08-23 20:00:00 24.9 3 Sudoeste 9 Sur 0 -- -- 53
2019-08-23 19:00:00 27.8 4 Noroeste 12 Noroeste 0 -- -- 50
2019-08-23 18:00:00 30.5 5 Norte 11 Nordeste 0 -- -- 36
2019-08-23 17:00:00 31.3 5 Nordeste 14 Nordeste 0 -- -- 35
2019-08-23 16:00:00 30.9 4 Noroeste 14 Noroeste 0 -- -- 34
2019-08-23 15:00:00 30.2 5 Sur 14 Sur 0 -- -- 36
2019-08-23 14:00:00 28.6 4 Sudeste 15 Sudeste 0 -- -- 46
2019-08-23 13:00:00 26.6 5 Este 15 Este 0 -- -- 52
2019-08-23 12:00:00 23.6 4 Sudeste 15 Este 0 -- -- 61
2019-08-23 11:00:00 20 4 Sudeste 14 Sur 0 -- -- 72
2019-08-23 10:00:00 16 7 Sudeste 14 Sur 0 -- -- 81
2019-08-23 09:00:00 13.5 4 Sur 11 Sur 0 -- -- 95
2019-08-23 08:00:00 12.6 4 Sur 12 Sudeste 0 -- -- 98
2019-08-23 07:00:00 12.5 5 Sur 10 Sur 0 -- -- 99
2019-08-23 06:00:00 12.6 5 Sur 10 Sur 0 -- -- 100
2019-08-23 05:00:00 13 5 Sudeste 10 Sudeste 0 -- -- 94
2019-08-23 04:00:00 13.1 4 Sudoeste 6 Sudoeste 0 -- -- 90
2019-08-23 03:00:00 13.2 3 Sudoeste 5 Sur 0 -- -- 90
2019-08-23 02:00:00 13.3 4 Sudoeste 5 Sudoeste 0 -- -- 86
2019-08-23 01:00:00 13.6 3 Sudoeste 5 Sudoeste 0 -- -- 88
2019-08-23 00:00:00 14.4 3 Sudoeste 5 Sudoeste 0 -- -- 93
2019-08-22 23:00:00 15.1 2 Sudoeste 5 Oeste 0 -- -- 95
2019-08-22 22:00:00 15.5 4 Sudoeste 6 Oeste 0 -- -- 90
2019-08-22 21:00:00 16.8 4 Sudoeste 9 Norte 0 -- -- 82
2019-08-22 20:00:00 19.9 3 Sudoeste 13 Nordeste 0 -- -- 69
2019-08-22 19:00:00 21.8 8 Nordeste 17 Nordeste 0 -- -- 54
2019-08-22 18:00:00 22.9 8 Nordeste 17 Nordeste 0 -- -- 54
2019-08-22 17:00:00 24 6 Norte 17 Norte 0 -- -- 50
2019-08-22 16:00:00 24.2 8 Nordeste 18 Norte 0 -- -- 54
2019-08-22 15:00:00 23.7 6 Norte 20 Norte 0 -- -- 45
2019-08-22 14:00:00 23.1 8 Norte 21 Este 0 -- -- 50
2019-08-22 13:00:00 23 5 Este 21 Este 0 -- -- 62
2019-08-22 12:00:00 21.1 4 Nordeste 10 Nordeste -- -- -- 74
2019-08-22 11:00:00 -- -- -- -- -- -- -- -- --
2019-08-22 10:00:00 15.7 2 Este 6 Sudeste 0 -- -- 100
2019-08-22 09:00:00 14.3 3 Sudeste 7 Sur 0 -- -- 100
2019-08-22 08:00:00 13.5 4 Sur 8 Sudeste 0 -- -- 100
2019-08-22 07:00:00 13.2 4 Sur 8 Sudeste 0 -- -- 100
2019-08-22 06:00:00 13.2 2 Noroeste 4 Noroeste 0 -- -- 100
2019-08-22 05:00:00 13.4 0 Calma 6 Noroeste 0 -- -- 100
2019-08-22 04:00:00 13.5 0 Calma 5 Sudoeste 0 -- -- 100
2019-08-22 03:00:00 13.8 2 Oeste 5 Noroeste 0 -- -- 100
2019-08-22 02:00:00 13.7 0 Calma 4 Sudoeste 0 -- -- 100
2019-08-22 01:00:00 14.1 2 Oeste 6 Oeste 0 -- -- 100
2019-08-22 00:00:00 14.4 3 Sudoeste 6 Sudoeste 0 -- -- 97
2019-08-21 23:00:00 14.7 4 Oeste 6 Sudoeste 0 -- -- 95
2019-08-21 22:00:00 15.3 4 Oeste 8 Oeste 0 -- -- 90
2019-08-21 21:00:00 17.1 4 Oeste 12 Norte 0 -- -- 80
2019-08-21 20:00:00 20.1 4 Norte 20 Norte 0 -- -- 72
2019-08-21 19:00:00 21.2 5 Nordeste 18 Noroeste 0 -- -- 71
2019-08-21 18:00:00 22.2 7 Noroeste 23 Nordeste 0 -- -- 67
2019-08-21 17:00:00 22.2 12 Nordeste 23 Norte 0 -- -- 69
2019-08-21 16:00:00 22.9 9 Nordeste 17 Norte 0 -- -- 66
2019-08-21 15:00:00 22.5 6 Norte 14 Norte 0 -- -- 66
2019-08-21 14:00:00 22.1 6 Norte 16 Norte 0 -- -- 69
2019-08-21 13:00:00 21.7 4 Norte 10 Norte 0 -- -- 68
2019-08-21 12:00:00 19.9 2 Sudeste 8 Sudeste 0 -- -- 76
2019-08-21 11:00:00 17.2 3 Sur 8 Sur 0 -- -- 80
2019-08-21 10:00:00 15 2 Este 7 Este 0 -- -- 96
2019-08-21 09:00:00 13.6 2 Sudeste 5 Sur 0 -- -- 100
2019-08-21 08:00:00 12.8 3 Oeste 5 Sudoeste 0 -- -- 98
2019-08-21 07:00:00 13 0 Calma 4 Sudoeste 0 -- -- 97
2019-08-21 06:00:00 13.8 3 Sudoeste 5 Sudoeste 0 -- -- 95
2019-08-21 05:00:00 14.6 2 Sudoeste 4 Oeste 0 -- -- 95
2019-08-21 04:00:00 14.5 0 Calma 8 Sudeste 0 -- -- 95
2019-08-21 03:00:00 14.8 0 Calma 8 Nordeste 0 -- -- 94
2019-08-21 02:00:00 15.2 4 Este 14 Este 0 -- -- 89
2019-08-21 01:00:00 15.5 3 Nordeste 13 Este 0 -- -- 86
2019-08-21 00:00:00 15.6 3 Este 11 Este 0 -- -- 87